sensor_id;sensor_type;location;lat;lon;timestamp;P1;durP1;ratioP1;P2;durP2;ratioP2
25938;SDS011;13739;51.172;4.466;2023-01-29T00:02:12;40.85;;;17.63;;
25938;SDS011;13739;51.172;4.466;2023-01-29T00:04:38;42.38;;;18.23;;
25938;SDS011;13739;51.172;4.466;2023-01-29T00:07:06;41.80;;;18.58;;
25938;SDS011;13739;51.172;4.466;2023-01-29T00:09:35;44.90;;;18.70;;
25938;SDS011;13739;51.172;4.466;2023-01-29T00:12:01;41.33;;;17.52;;
25938;SDS011;13739;51.172;4.466;2023-01-29T00:14:33;46.45;;;18.30;;
25938;SDS011;13739;51.172;4.466;2023-01-29T00:17:07;44.13;;;17.58;;
25938;SDS011;13739;51.172;4.466;2023-01-29T00:19:40;43.85;;;17.80;;
25938;SDS011;13739;51.172;4.466;2023-01-29T00:22:09;43.78;;;17.92;;
25938;SDS011;13739;51.172;4.466;2023-01-29T00:24:36;43.83;;;18.77;;
25938;SDS011;13739;51.172;4.466;2023-01-29T00:27:02;46.30;;;19.85;;
25938;SDS011;13739;51.172;4.466;2023-01-29T00:29:31;52.30;;;20.30;;
25938;SDS011;13739;51.172;4.466;2023-01-29T00:31:59;48.40;;;19.08;;
25938;SDS011;13739;51.172;4.466;2023-01-29T00:34:26;46.55;;;19.92;;
25938;SDS011;13739;51.172;4.466;2023-01-29T00:36:53;48.13;;;19.38;;
25938;SDS011;13739;51.172;4.466;2023-01-29T00:39:29;45.53;;;19.60;;
25938;SDS011;13739;51.172;4.466;2023-01-29T00:42:04;51.15;;;18.50;;
25938;SDS011;13739;51.172;4.466;2023-01-29T00:44:49;48.65;;;19.95;;
25938;SDS011;13739;51.172;4.466;2023-01-29T00:47:22;45.95;;;19.08;;
25938;SDS011;13739;51.172;4.466;2023-01-29T00:49:59;47.63;;;20.00;;
25938;SDS011;13739;51.172;4.466;2023-01-29T00:52:31;41.63;;;19.05;;
25938;SDS011;13739;51.172;4.466;2023-01-29T00:55:00;45.13;;;19.13;;
25938;SDS011;13739;51.172;4.466;2023-01-29T00:57:28;52.00;;;20.80;;
25938;SDS011;13739;51.172;4.466;2023-01-29T00:59:56;49.95;;;21.08;;
25938;SDS011;13739;51.172;4.466;2023-01-29T01:02:22;51.20;;;21.42;;
25938;SDS011;13739;51.172;4.466;2023-01-29T01:05:09;41.58;;;19.45;;
25938;SDS011;13739;51.172;4.466;2023-01-29T01:07:47;53.83;;;20.48;;
25938;SDS011;13739;51.172;4.466;2023-01-29T01:10:26;43.88;;;19.30;;
25938;SDS011;13739;51.172;4.466;2023-01-29T01:15:29;46.70;;;20.65;;
25938;SDS011;13739;51.172;4.466;2023-01-29T01:18:00;45.47;;;18.10;;
25938;SDS011;13739;51.172;4.466;2023-01-29T01:20:29;45.25;;;19.67;;
25938;SDS011;13739;51.172;4.466;2023-01-29T01:22:57;47.85;;;20.65;;
25938;SDS011;13739;51.172;4.466;2023-01-29T01:25:24;46.38;;;20.38;;
25938;SDS011;13739;51.172;4.466;2023-01-29T01:27:56;47.95;;;20.30;;
25938;SDS011;13739;51.172;4.466;2023-01-29T01:30:24;47.55;;;18.88;;
25938;SDS011;13739;51.172;4.466;2023-01-29T01:32:52;46.20;;;19.50;;
25938;SDS011;13739;51.172;4.466;2023-01-29T01:35:18;44.63;;;19.88;;
25938;SDS011;13739;51.172;4.466;2023-01-29T01:37:44;51.10;;;20.13;;
25938;SDS011;13739;51.172;4.466;2023-01-29T01:40:12;59.03;;;22.20;;
25938;SDS011;13739;51.172;4.466;2023-01-29T01:42:52;50.40;;;19.50;;
25938;SDS011;13739;51.172;4.466;2023-01-29T01:45:21;49.17;;;19.95;;
25938;SDS011;13739;51.172;4.466;2023-01-29T01:47:50;49.97;;;20.67;;
25938;SDS011;13739;51.172;4.466;2023-01-29T01:50:41;48.08;;;20.15;;
25938;SDS011;13739;51.172;4.466;2023-01-29T01:53:25;49.05;;;19.35;;
25938;SDS011;13739;51.172;4.466;2023-01-29T01:56:15;43.83;;;20.13;;
25938;SDS011;13739;51.172;4.466;2023-01-29T01:58:50;48.80;;;19.40;;
25938;SDS011;13739;51.172;4.466;2023-01-29T02:01:21;51.85;;;20.33;;
25938;SDS011;13739;51.172;4.466;2023-01-29T02:04:02;50.95;;;20.35;;
25938;SDS011;13739;51.172;4.466;2023-01-29T02:06:57;43.90;;;19.38;;
25938;SDS011;13739;51.172;4.466;2023-01-29T02:09:51;54.30;;;20.85;;
25938;SDS011;13739;51.172;4.466;2023-01-29T02:12:24;56.03;;;20.30;;
25938;SDS011;13739;51.172;4.466;2023-01-29T02:14:56;50.97;;;20.25;;
25938;SDS011;13739;51.172;4.466;2023-01-29T02:17:22;46.00;;;20.88;;
25938;SDS011;13739;51.172;4.466;2023-01-29T02:22:58;58.97;;;21.30;;
25938;SDS011;13739;51.172;4.466;2023-01-29T02:25:37;53.50;;;21.30;;
25938;SDS011;13739;51.172;4.466;2023-01-29T02:31:34;56.30;;;21.90;;
25938;SDS011;13739;51.172;4.466;2023-01-29T02:34:19;50.95;;;21.35;;
25938;SDS011;13739;51.172;4.466;2023-01-29T02:37:20;51.95;;;20.88;;
25938;SDS011;13739;51.172;4.466;2023-01-29T02:40:04;54.25;;;20.40;;
25938;SDS011;13739;51.172;4.466;2023-01-29T02:43:00;50.40;;;20.65;;
25938;SDS011;13739;51.172;4.466;2023-01-29T02:48:23;53.25;;;20.88;;
25938;SDS011;13739;51.172;4.466;2023-01-29T02:50:59;48.47;;;19.85;;
25938;SDS011;13739;51.172;4.466;2023-01-29T02:56:39;48.78;;;19.80;;
25938;SDS011;13739;51.172;4.466;2023-01-29T02:59:17;48.15;;;19.90;;
25938;SDS011;13739;51.172;4.466;2023-01-29T03:01:57;52.20;;;20.67;;
25938;SDS011;13739;51.172;4.466;2023-01-29T03:04:34;49.50;;;20.20;;
25938;SDS011;13739;51.172;4.466;2023-01-29T03:07:12;45.20;;;19.88;;
25938;SDS011;13739;51.172;4.466;2023-01-29T03:10:05;45.90;;;20.20;;
25938;SDS011;13739;51.172;4.466;2023-01-29T03:12:43;50.08;;;19.23;;
25938;SDS011;13739;51.172;4.466;2023-01-29T03:15:13;51.13;;;21.98;;
25938;SDS011;13739;51.172;4.466;2023-01-29T03:20:15;48.70;;;20.15;;
25938;SDS011;13739;51.172;4.466;2023-01-29T03:22:48;48.03;;;19.90;;
25938;SDS011;13739;51.172;4.466;2023-01-29T03:25:22;46.75;;;19.02;;
25938;SDS011;13739;51.172;4.466;2023-01-29T03:28:10;49.75;;;19.58;;
25938;SDS011;13739;51.172;4.466;2023-01-29T03:31:00;46.08;;;19.05;;
25938;SDS011;13739;51.172;4.466;2023-01-29T03:33:48;52.25;;;19.73;;
25938;SDS011;13739;51.172;4.466;2023-01-29T03:36:30;46.72;;;20.38;;
25938;SDS011;13739;51.172;4.466;2023-01-29T03:39:09;50.08;;;18.88;;
25938;SDS011;13739;51.172;4.466;2023-01-29T03:47:31;48.85;;;19.80;;
25938;SDS011;13739;51.172;4.466;2023-01-29T03:52:58;50.38;;;18.67;;
25938;SDS011;13739;51.172;4.466;2023-01-29T04:01:19;41.20;;;17.45;;
25938;SDS011;13739;51.172;4.466;2023-01-29T04:03:53;49.47;;;18.98;;
25938;SDS011;13739;51.172;4.466;2023-01-29T04:06:23;54.20;;;21.20;;
25938;SDS011;13739;51.172;4.466;2023-01-29T04:11:49;52.35;;;18.70;;
25938;SDS011;13739;51.172;4.466;2023-01-29T04:14:35;57.00;;;19.13;;
25938;SDS011;13739;51.172;4.466;2023-01-29T04:17:13;52.70;;;20.70;;
25938;SDS011;13739;51.172;4.466;2023-01-29T04:19:44;48.60;;;18.05;;
25938;SDS011;13739;51.172;4.466;2023-01-29T04:25:10;49.28;;;18.75;;
25938;SDS011;13739;51.172;4.466;2023-01-29T04:28:01;49.50;;;19.63;;
25938;SDS011;13739;51.172;4.466;2023-01-29T04:30:44;50.58;;;18.05;;
25938;SDS011;13739;51.172;4.466;2023-01-29T04:33:34;53.05;;;19.38;;
25938;SDS011;13739;51.172;4.466;2023-01-29T04:47:46;43.63;;;16.75;;
25938;SDS011;13739;51.172;4.466;2023-01-29T04:50:28;47.22;;;18.30;;
25938;SDS011;13739;51.172;4.466;2023-01-29T04:55:50;48.40;;;18.92;;
25938;SDS011;13739;51.172;4.466;2023-01-29T04:58:32;50.70;;;19.45;;
25938;SDS011;13739;51.172;4.466;2023-01-29T05:01:07;49.20;;;18.40;;
25938;SDS011;13739;51.172;4.466;2023-01-29T05:03:38;49.63;;;18.88;;
25938;SDS011;13739;51.172;4.466;2023-01-29T05:06:07;47.10;;;18.83;;
25938;SDS011;13739;51.172;4.466;2023-01-29T05:08:35;48.63;;;19.40;;
25938;SDS011;13739;51.172;4.466;2023-01-29T05:11:03;49.22;;;19.33;;
25938;SDS011;13739;51.172;4.466;2023-01-29T05:13:30;51.55;;;18.90;;
25938;SDS011;13739;51.172;4.466;2023-01-29T05:16:07;55.95;;;20.75;;
25938;SDS011;13739;51.172;4.466;2023-01-29T05:18:40;49.97;;;18.80;;
25938;SDS011;13739;51.172;4.466;2023-01-29T05:21:07;53.00;;;19.75;;
25938;SDS011;13739;51.172;4.466;2023-01-29T05:23:34;44.75;;;18.10;;
25938;SDS011;13739;51.172;4.466;2023-01-29T05:26:00;45.45;;;18.42;;
25938;SDS011;13739;51.172;4.466;2023-01-29T05:28:27;56.40;;;19.85;;
25938;SDS011;13739;51.172;4.466;2023-01-29T05:30:54;47.47;;;18.63;;
25938;SDS011;13739;51.172;4.466;2023-01-29T05:33:24;54.55;;;19.55;;
25938;SDS011;13739;51.172;4.466;2023-01-29T05:35:53;50.75;;;19.23;;
25938;SDS011;13739;51.172;4.466;2023-01-29T05:38:20;51.08;;;18.58;;
25938;SDS011;13739;51.172;4.466;2023-01-29T05:40:47;48.95;;;18.30;;
25938;SDS011;13739;51.172;4.466;2023-01-29T05:43:22;49.97;;;18.95;;
25938;SDS011;13739;51.172;4.466;2023-01-29T05:48:20;52.95;;;19.30;;
25938;SDS011;13739;51.172;4.466;2023-01-29T05:50:46;57.42;;;19.55;;
25938;SDS011;13739;51.172;4.466;2023-01-29T05:53:16;49.15;;;19.42;;
25938;SDS011;13739;51.172;4.466;2023-01-29T05:55:43;56.03;;;19.27;;
25938;SDS011;13739;51.172;4.466;2023-01-29T05:58:10;54.08;;;19.02;;
25938;SDS011;13739;51.172;4.466;2023-01-29T06:00:36;50.05;;;18.25;;
25938;SDS011;13739;51.172;4.466;2023-01-29T06:03:02;49.67;;;18.77;;
25938;SDS011;13739;51.172;4.466;2023-01-29T06:05:30;54.15;;;19.45;;
25938;SDS011;13739;51.172;4.466;2023-01-29T06:07:57;50.00;;;19.33;;
25938;SDS011;13739;51.172;4.466;2023-01-29T06:10:27;53.72;;;19.23;;
25938;SDS011;13739;51.172;4.466;2023-01-29T06:12:54;46.25;;;18.10;;
25938;SDS011;13739;51.172;4.466;2023-01-29T06:15:20;46.92;;;18.60;;
25938;SDS011;13739;51.172;4.466;2023-01-29T06:17:48;45.22;;;17.42;;
25938;SDS011;13739;51.172;4.466;2023-01-29T06:20:14;49.35;;;18.75;;
25938;SDS011;13739;51.172;4.466;2023-01-29T06:22:42;53.53;;;19.00;;
25938;SDS011;13739;51.172;4.466;2023-01-29T06:25:08;46.40;;;16.77;;
25938;SDS011;13739;51.172;4.466;2023-01-29T06:27:34;52.13;;;17.83;;
25938;SDS011;13739;51.172;4.466;2023-01-29T06:30:02;47.30;;;18.13;;
25938;SDS011;13739;51.172;4.466;2023-01-29T06:32:29;47.97;;;16.95;;
25938;SDS011;13739;51.172;4.466;2023-01-29T06:34:56;53.58;;;19.05;;
25938;SDS011;13739;51.172;4.466;2023-01-29T06:37:22;47.63;;;17.52;;
25938;SDS011;13739;51.172;4.466;2023-01-29T06:39:47;51.53;;;19.05;;
25938;SDS011;13739;51.172;4.466;2023-01-29T06:42:13;42.28;;;16.27;;
25938;SDS011;13739;51.172;4.466;2023-01-29T06:44:40;49.58;;;18.52;;
25938;SDS011;13739;51.172;4.466;2023-01-29T06:47:07;47.45;;;17.65;;
25938;SDS011;13739;51.172;4.466;2023-01-29T06:49:35;50.63;;;17.95;;
25938;SDS011;13739;51.172;4.466;2023-01-29T06:52:06;44.08;;;18.20;;
25938;SDS011;13739;51.172;4.466;2023-01-29T06:54:32;46.58;;;18.30;;
25938;SDS011;13739;51.172;4.466;2023-01-29T06:56:59;42.25;;;17.95;;
25938;SDS011;13739;51.172;4.466;2023-01-29T06:59:25;48.95;;;17.30;;
25938;SDS011;13739;51.172;4.466;2023-01-29T07:01:51;50.38;;;19.63;;
25938;SDS011;13739;51.172;4.466;2023-01-29T07:04:19;47.45;;;17.45;;
25938;SDS011;13739;51.172;4.466;2023-01-29T07:06:45;49.05;;;18.08;;
25938;SDS011;13739;51.172;4.466;2023-01-29T07:09:11;50.63;;;19.23;;
25938;SDS011;13739;51.172;4.466;2023-01-29T07:11:38;50.35;;;18.70;;
25938;SDS011;13739;51.172;4.466;2023-01-29T07:14:09;50.15;;;18.35;;
25938;SDS011;13739;51.172;4.466;2023-01-29T07:16:35;52.10;;;17.90;;
25938;SDS011;13739;51.172;4.466;2023-01-29T07:19:02;49.00;;;17.63;;
25938;SDS011;13739;51.172;4.466;2023-01-29T07:21:28;46.15;;;16.33;;
25938;SDS011;13739;51.172;4.466;2023-01-29T07:23:54;46.05;;;18.63;;
25938;SDS011;13739;51.172;4.466;2023-01-29T07:26:20;44.75;;;16.73;;
25938;SDS011;13739;51.172;4.466;2023-01-29T07:28:46;48.35;;;17.83;;
25938;SDS011;13739;51.172;4.466;2023-01-29T07:31:19;46.88;;;17.85;;
25938;SDS011;13739;51.172;4.466;2023-01-29T07:33:48;47.47;;;16.88;;
25938;SDS011;13739;51.172;4.466;2023-01-29T07:36:14;46.30;;;16.50;;
25938;SDS011;13739;51.172;4.466;2023-01-29T07:38:40;44.30;;;16.75;;
25938;SDS011;13739;51.172;4.466;2023-01-29T07:41:06;50.45;;;18.50;;
25938;SDS011;13739;51.172;4.466;2023-01-29T07:43:33;46.75;;;17.88;;
25938;SDS011;13739;51.172;4.466;2023-01-29T07:46:02;49.42;;;18.85;;
25938;SDS011;13739;51.172;4.466;2023-01-29T07:48:29;45.88;;;17.65;;
25938;SDS011;13739;51.172;4.466;2023-01-29T07:50:55;50.97;;;18.02;;
25938;SDS011;13739;51.172;4.466;2023-01-29T07:53:22;44.42;;;17.77;;
25938;SDS011;13739;51.172;4.466;2023-01-29T07:55:49;46.80;;;17.05;;
25938;SDS011;13739;51.172;4.466;2023-01-29T07:58:15;56.38;;;19.05;;
25938;SDS011;13739;51.172;4.466;2023-01-29T08:00:41;44.67;;;17.55;;
25938;SDS011;13739;51.172;4.466;2023-01-29T08:03:12;47.47;;;18.23;;
25938;SDS011;13739;51.172;4.466;2023-01-29T08:05:40;48.20;;;18.05;;
25938;SDS011;13739;51.172;4.466;2023-01-29T08:08:07;49.55;;;17.20;;
25938;SDS011;13739;51.172;4.466;2023-01-29T08:10:33;49.42;;;17.95;;
25938;SDS011;13739;51.172;4.466;2023-01-29T08:13:00;44.45;;;17.00;;
25938;SDS011;13739;51.172;4.466;2023-01-29T08:15:27;45.03;;;18.55;;
25938;SDS011;13739;51.172;4.466;2023-01-29T08:17:53;47.13;;;18.58;;
25938;SDS011;13739;51.172;4.466;2023-01-29T08:20:20;48.95;;;17.95;;
25938;SDS011;13739;51.172;4.466;2023-01-29T08:22:47;46.00;;;17.80;;
25938;SDS011;13739;51.172;4.466;2023-01-29T08:25:13;46.33;;;18.00;;
25938;SDS011;13739;51.172;4.466;2023-01-29T08:27:40;50.13;;;17.02;;
25938;SDS011;13739;51.172;4.466;2023-01-29T08:30:08;45.50;;;16.50;;
25938;SDS011;13739;51.172;4.466;2023-01-29T08:32:35;45.40;;;18.52;;
25938;SDS011;13739;51.172;4.466;2023-01-29T08:35:00;49.10;;;17.83;;
25938;SDS011;13739;51.172;4.466;2023-01-29T08:37:26;48.13;;;17.88;;
25938;SDS011;13739;51.172;4.466;2023-01-29T08:39:52;47.50;;;18.02;;
25938;SDS011;13739;51.172;4.466;2023-01-29T08:42:18;43.20;;;16.42;;
25938;SDS011;13739;51.172;4.466;2023-01-29T08:44:43;46.78;;;18.65;;
25938;SDS011;13739;51.172;4.466;2023-01-29T08:47:09;43.97;;;17.35;;
25938;SDS011;13739;51.172;4.466;2023-01-29T08:49:35;44.20;;;17.33;;
25938;SDS011;13739;51.172;4.466;2023-01-29T08:52:00;44.58;;;17.35;;
25938;SDS011;13739;51.172;4.466;2023-01-29T08:54:26;43.13;;;16.63;;
25938;SDS011;13739;51.172;4.466;2023-01-29T08:56:52;47.60;;;17.42;;
25938;SDS011;13739;51.172;4.466;2023-01-29T08:59:18;45.33;;;17.08;;
25938;SDS011;13739;51.172;4.466;2023-01-29T09:01:43;41.47;;;17.75;;
25938;SDS011;13739;51.172;4.466;2023-01-29T09:04:09;45.72;;;17.55;;
25938;SDS011;13739;51.172;4.466;2023-01-29T09:06:35;50.15;;;17.30;;
25938;SDS011;13739;51.172;4.466;2023-01-29T09:09:01;46.50;;;17.92;;
25938;SDS011;13739;51.172;4.466;2023-01-29T09:11:26;44.75;;;17.00;;
25938;SDS011;13739;51.172;4.466;2023-01-29T09:13:52;45.33;;;18.23;;
25938;SDS011;13739;51.172;4.466;2023-01-29T09:16:18;47.55;;;16.83;;
25938;SDS011;13739;51.172;4.466;2023-01-29T09:18:44;43.63;;;17.02;;
25938;SDS011;13739;51.172;4.466;2023-01-29T09:21:10;41.13;;;15.55;;
25938;SDS011;13739;51.172;4.466;2023-01-29T09:23:36;43.80;;;16.73;;
25938;SDS011;13739;51.172;4.466;2023-01-29T09:26:02;45.58;;;16.13;;
25938;SDS011;13739;51.172;4.466;2023-01-29T09:28:28;38.08;;;15.85;;
25938;SDS011;13739;51.172;4.466;2023-01-29T09:30:54;43.17;;;16.83;;
25938;SDS011;13739;51.172;4.466;2023-01-29T09:33:20;37.42;;;16.83;;
25938;SDS011;13739;51.172;4.466;2023-01-29T09:35:46;41.20;;;15.57;;
25938;SDS011;13739;51.172;4.466;2023-01-29T09:38:12;43.05;;;17.40;;
25938;SDS011;13739;51.172;4.466;2023-01-29T09:43:29;41.22;;;16.58;;
25938;SDS011;13739;51.172;4.466;2023-01-29T09:48:43;45.90;;;17.65;;
25938;SDS011;13739;51.172;4.466;2023-01-29T09:51:13;49.35;;;18.90;;
25938;SDS011;13739;51.172;4.466;2023-01-29T09:53:53;49.13;;;16.98;;
25938;SDS011;13739;51.172;4.466;2023-01-29T09:56:41;42.58;;;17.45;;
25938;SDS011;13739;51.172;4.466;2023-01-29T09:59:10;46.00;;;19.10;;
25938;SDS011;13739;51.172;4.466;2023-01-29T10:01:41;42.53;;;17.45;;
25938;SDS011;13739;51.172;4.466;2023-01-29T10:16:05;37.63;;;16.13;;
25938;SDS011;13739;51.172;4.466;2023-01-29T10:27:20;42.25;;;16.40;;
25938;SDS011;13739;51.172;4.466;2023-01-29T10:29:47;45.30;;;16.20;;
25938;SDS011;13739;51.172;4.466;2023-01-29T10:32:20;48.67;;;18.73;;
25938;SDS011;13739;51.172;4.466;2023-01-29T10:34:56;50.13;;;17.95;;
25938;SDS011;13739;51.172;4.466;2023-01-29T10:37:37;42.03;;;18.48;;
25938;SDS011;13739;51.172;4.466;2023-01-29T10:40:27;46.28;;;17.75;;
25938;SDS011;13739;51.172;4.466;2023-01-29T10:42:52;46.50;;;19.33;;
25938;SDS011;13739;51.172;4.466;2023-01-29T10:50:46;48.13;;;19.17;;
25938;SDS011;13739;51.172;4.466;2023-01-29T10:59:38;44.92;;;17.83;;
25938;SDS011;13739;51.172;4.466;2023-01-29T11:02:34;42.03;;;19.08;;
25938;SDS011;13739;51.172;4.466;2023-01-29T11:05:00;48.72;;;18.25;;
25938;SDS011;13739;51.172;4.466;2023-01-29T11:07:26;46.85;;;18.85;;
25938;SDS011;13739;51.172;4.466;2023-01-29T11:09:56;45.13;;;18.75;;
25938;SDS011;13739;51.172;4.466;2023-01-29T11:12:29;48.15;;;18.13;;
25938;SDS011;13739;51.172;4.466;2023-01-29T11:18:03;45.13;;;17.50;;
25938;SDS011;13739;51.172;4.466;2023-01-29T11:20:43;39.88;;;16.33;;
25938;SDS011;13739;51.172;4.466;2023-01-29T11:26:05;42.90;;;17.95;;
25938;SDS011;13739;51.172;4.466;2023-01-29T11:28:44;39.53;;;17.63;;
25938;SDS011;13739;51.172;4.466;2023-01-29T11:31:18;49.38;;;19.23;;
25938;SDS011;13739;51.172;4.466;2023-01-29T11:34:04;45.03;;;17.23;;
25938;SDS011;13739;51.172;4.466;2023-01-29T11:36:40;37.25;;;16.10;;
25938;SDS011;13739;51.172;4.466;2023-01-29T11:39:14;34.50;;;15.32;;
25938;SDS011;13739;51.172;4.466;2023-01-29T11:47:09;43.28;;;17.63;;
25938;SDS011;13739;51.172;4.466;2023-01-29T11:49:39;48.78;;;17.27;;
25938;SDS011;13739;51.172;4.466;2023-01-29T11:52:09;44.40;;;16.63;;
25938;SDS011;13739;51.172;4.466;2023-01-29T11:54:37;36.00;;;15.77;;
25938;SDS011;13739;51.172;4.466;2023-01-29T11:59:54;41.08;;;17.65;;
25938;SDS011;13739;51.172;4.466;2023-01-29T12:04:56;46.17;;;17.58;;
25938;SDS011;13739;51.172;4.466;2023-01-29T12:07:26;36.60;;;14.13;;
25938;SDS011;13739;51.172;4.466;2023-01-29T12:09:53;38.38;;;15.52;;
25938;SDS011;13739;51.172;4.466;2023-01-29T12:15:29;36.10;;;16.63;;
25938;SDS011;13739;51.172;4.466;2023-01-29T12:18:13;38.42;;;15.48;;
25938;SDS011;13739;51.172;4.466;2023-01-29T12:20:37;45.10;;;16.73;;
25938;SDS011;13739;51.172;4.466;2023-01-29T12:26:07;37.38;;;16.38;;
25938;SDS011;13739;51.172;4.466;2023-01-29T12:29:23;37.47;;;15.85;;
25938;SDS011;13739;51.172;4.466;2023-01-29T12:39:42;33.42;;;14.52;;
25938;SDS011;13739;51.172;4.466;2023-01-29T12:42:09;36.55;;;15.25;;
25938;SDS011;13739;51.172;4.466;2023-01-29T12:44:38;36.55;;;15.05;;
25938;SDS011;13739;51.172;4.466;2023-01-29T12:47:32;34.58;;;15.60;;
25938;SDS011;13739;51.172;4.466;2023-01-29T12:50:01;33.28;;;15.10;;
25938;SDS011;13739;51.172;4.466;2023-01-29T12:52:38;39.60;;;15.23;;
25938;SDS011;13739;51.172;4.466;2023-01-29T12:55:07;36.83;;;14.82;;
25938;SDS011;13739;51.172;4.466;2023-01-29T12:57:38;36.30;;;14.60;;
25938;SDS011;13739;51.172;4.466;2023-01-29T13:00:20;41.95;;;16.13;;
25938;SDS011;13739;51.172;4.466;2023-01-29T13:05:50;31.00;;;14.23;;
25938;SDS011;13739;51.172;4.466;2023-01-29T13:08:38;34.25;;;13.80;;
25938;SDS011;13739;51.172;4.466;2023-01-29T13:11:17;31.75;;;14.10;;
25938;SDS011;13739;51.172;4.466;2023-01-29T13:14:11;36.50;;;14.05;;
25938;SDS011;13739;51.172;4.466;2023-01-29T13:16:44;33.90;;;14.88;;
25938;SDS011;13739;51.172;4.466;2023-01-29T13:19:23;32.75;;;14.30;;
25938;SDS011;13739;51.172;4.466;2023-01-29T13:21:56;37.75;;;15.73;;
25938;SDS011;13739;51.172;4.466;2023-01-29T13:24:26;34.38;;;15.18;;
25938;SDS011;13739;51.172;4.466;2023-01-29T13:27:00;34.15;;;14.45;;
25938;SDS011;13739;51.172;4.466;2023-01-29T13:29:29;31.30;;;13.32;;
25938;SDS011;13739;51.172;4.466;2023-01-29T13:31:56;39.78;;;14.57;;
25938;SDS011;13739;51.172;4.466;2023-01-29T13:34:27;39.30;;;15.85;;
25938;SDS011;13739;51.172;4.466;2023-01-29T13:37:00;30.90;;;14.02;;
25938;SDS011;13739;51.172;4.466;2023-01-29T13:39:49;31.98;;;12.95;;
25938;SDS011;13739;51.172;4.466;2023-01-29T13:42:18;29.13;;;12.75;;
25938;SDS011;13739;51.172;4.466;2023-01-29T13:45:06;29.88;;;13.82;;
25938;SDS011;13739;51.172;4.466;2023-01-29T13:47:36;30.55;;;13.88;;
25938;SDS011;13739;51.172;4.466;2023-01-29T13:50:04;27.20;;;13.25;;
25938;SDS011;13739;51.172;4.466;2023-01-29T13:55:33;30.65;;;15.10;;
25938;SDS011;13739;51.172;4.466;2023-01-29T13:58:06;31.55;;;13.55;;
25938;SDS011;13739;51.172;4.466;2023-01-29T14:10:39;33.60;;;13.85;;
25938;SDS011;13739;51.172;4.466;2023-01-29T14:13:27;26.52;;;12.45;;
25938;SDS011;13739;51.172;4.466;2023-01-29T14:18:24;33.78;;;13.77;;
25938;SDS011;13739;51.172;4.466;2023-01-29T14:24:06;30.58;;;13.05;;
25938;SDS011;13739;51.172;4.466;2023-01-29T14:34:30;32.10;;;14.07;;
25938;SDS011;13739;51.172;4.466;2023-01-29T14:37:02;27.60;;;13.02;;
25938;SDS011;13739;51.172;4.466;2023-01-29T14:39:49;38.65;;;13.82;;
25938;SDS011;13739;51.172;4.466;2023-01-29T14:42:21;31.30;;;13.25;;
25938;SDS011;13739;51.172;4.466;2023-01-29T14:44:58;29.85;;;12.95;;
25938;SDS011;13739;51.172;4.466;2023-01-29T14:52:43;30.15;;;12.80;;
25938;SDS011;13739;51.172;4.466;2023-01-29T14:57:45;28.58;;;12.70;;
25938;SDS011;13739;51.172;4.466;2023-01-29T15:00:21;33.72;;;13.25;;
25938;SDS011;13739;51.172;4.466;2023-01-29T15:02:53;28.15;;;12.57;;
25938;SDS011;13739;51.172;4.466;2023-01-29T15:05:23;26.77;;;13.50;;
25938;SDS011;13739;51.172;4.466;2023-01-29T15:07:59;32.85;;;13.25;;
25938;SDS011;13739;51.172;4.466;2023-01-29T15:10:35;34.58;;;13.55;;
25938;SDS011;13739;51.172;4.466;2023-01-29T15:13:03;28.38;;;11.95;;
25938;SDS011;13739;51.172;4.466;2023-01-29T15:18:18;28.33;;;12.20;;
25938;SDS011;13739;51.172;4.466;2023-01-29T15:20:59;30.40;;;13.18;;
25938;SDS011;13739;51.172;4.466;2023-01-29T15:23:30;26.27;;;11.40;;
25938;SDS011;13739;51.172;4.466;2023-01-29T15:25:59;33.58;;;12.27;;
25938;SDS011;13739;51.172;4.466;2023-01-29T15:28:27;31.92;;;13.43;;
25938;SDS011;13739;51.172;4.466;2023-01-29T15:30:58;32.50;;;12.70;;
25938;SDS011;13739;51.172;4.466;2023-01-29T15:33:28;33.83;;;14.07;;
25938;SDS011;13739;51.172;4.466;2023-01-29T15:35:56;31.95;;;13.00;;
25938;SDS011;13739;51.172;4.466;2023-01-29T15:38:24;36.60;;;13.45;;
25938;SDS011;13739;51.172;4.466;2023-01-29T15:45:47;33.67;;;14.82;;
25938;SDS011;13739;51.172;4.466;2023-01-29T15:48:16;29.33;;;12.13;;
25938;SDS011;13739;51.172;4.466;2023-01-29T15:50:44;29.52;;;12.88;;
25938;SDS011;13739;51.172;4.466;2023-01-29T15:53:14;37.00;;;15.65;;
25938;SDS011;13739;51.172;4.466;2023-01-29T15:55:44;32.22;;;13.68;;
25938;SDS011;13739;51.172;4.466;2023-01-29T15:58:16;28.80;;;12.63;;
25938;SDS011;13739;51.172;4.466;2023-01-29T16:00:51;33.63;;;14.82;;
25938;SDS011;13739;51.172;4.466;2023-01-29T16:03:19;32.47;;;13.07;;
25938;SDS011;13739;51.172;4.466;2023-01-29T16:05:47;36.10;;;14.40;;
25938;SDS011;13739;51.172;4.466;2023-01-29T16:08:14;32.85;;;14.20;;
25938;SDS011;13739;51.172;4.466;2023-01-29T16:10:40;34.55;;;14.52;;
25938;SDS011;13739;51.172;4.466;2023-01-29T16:18:39;38.88;;;14.63;;
25938;SDS011;13739;51.172;4.466;2023-01-29T16:21:08;34.00;;;14.60;;
25938;SDS011;13739;51.172;4.466;2023-01-29T16:23:43;38.38;;;13.85;;
25938;SDS011;13739;51.172;4.466;2023-01-29T16:26:14;36.15;;;14.52;;
25938;SDS011;13739;51.172;4.466;2023-01-29T16:28:52;41.75;;;14.63;;
25938;SDS011;13739;51.172;4.466;2023-01-29T16:31:25;34.97;;;15.00;;
25938;SDS011;13739;51.172;4.466;2023-01-29T16:33:52;38.40;;;13.35;;
25938;SDS011;13739;51.172;4.466;2023-01-29T16:36:21;30.80;;;13.68;;
25938;SDS011;13739;51.172;4.466;2023-01-29T16:38:50;41.17;;;14.40;;
25938;SDS011;13739;51.172;4.466;2023-01-29T16:43:56;39.33;;;15.32;;
25938;SDS011;13739;51.172;4.466;2023-01-29T16:46:36;43.58;;;15.65;;
25938;SDS011;13739;51.172;4.466;2023-01-29T16:50:21;32.38;;;12.93;;
25938;SDS011;13739;51.172;4.466;2023-01-29T16:55:21;22.38;;;10.68;;
25938;SDS011;13739;51.172;4.466;2023-01-29T16:57:48;36.38;;;13.52;;
25938;SDS011;13739;51.172;4.466;2023-01-29T17:00:19;33.70;;;12.13;;
25938;SDS011;13739;51.172;4.466;2023-01-29T17:02:48;33.72;;;13.23;;
25938;SDS011;13739;51.172;4.466;2023-01-29T17:05:21;33.75;;;13.07;;
25938;SDS011;13739;51.172;4.466;2023-01-29T17:07:50;39.50;;;15.57;;
25938;SDS011;13739;51.172;4.466;2023-01-29T17:10:19;41.22;;;16.42;;
25938;SDS011;13739;51.172;4.466;2023-01-29T17:12:48;39.00;;;15.98;;
25938;SDS011;13739;51.172;4.466;2023-01-29T17:15:28;40.15;;;16.08;;
25938;SDS011;13739;51.172;4.466;2023-01-29T17:18:25;31.98;;;13.48;;
25938;SDS011;13739;51.172;4.466;2023-01-29T17:20:51;35.28;;;14.77;;
25938;SDS011;13739;51.172;4.466;2023-01-29T17:23:17;42.72;;;16.83;;
25938;SDS011;13739;51.172;4.466;2023-01-29T17:25:43;44.35;;;16.15;;
25938;SDS011;13739;51.172;4.466;2023-01-29T17:28:13;37.22;;;14.98;;
25938;SDS011;13739;51.172;4.466;2023-01-29T17:30:41;44.58;;;16.40;;
25938;SDS011;13739;51.172;4.466;2023-01-29T17:33:11;42.92;;;16.77;;
25938;SDS011;13739;51.172;4.466;2023-01-29T17:35:39;48.05;;;17.73;;
25938;SDS011;13739;51.172;4.466;2023-01-29T17:38:16;41.58;;;15.63;;
25938;SDS011;13739;51.172;4.466;2023-01-29T17:40:59;42.28;;;17.20;;
25938;SDS011;13739;51.172;4.466;2023-01-29T17:43:30;45.00;;;16.95;;
25938;SDS011;13739;51.172;4.466;2023-01-29T17:45:56;45.13;;;17.05;;
25938;SDS011;13739;51.172;4.466;2023-01-29T17:48:25;42.78;;;17.25;;